M I D A S
Marine Information and Data Acquisition System
Tripno 1006 of the Zeeleeuw from 2005-08-29 10:29:05 to 2005-08-29 15:20:27
Back to CruiseResearch ActivitiesStationsMapUnderway DataData graphs

EquipmentUnitsComment
TimeDGPSUTC
LatitudeDGPSDM.mWGS84
LongitudeDGPSDM.mWGS84
HeadingGyrodeg 
SOGDGPSknotsSpeed over ground
COGDGPSdegCourse over ground
DepthEcho soundermeters200 kHz
Missing or incorrect values are displayed as -999
Navigation data collected by the RV Zeeleeuw from 2005-08-29 06:28:51 to 2005-08-29 15:33:22
Time Latitude Longitude Heading SOG COG Depth
2005-08-29 06:29:56 51°13.596 2°56.094 125.5 0.1 200 -999
2005-08-29 06:30:56 51°13.596 2°56.094 125.5 0.1 219 -999
2005-08-29 06:31:56 51°13.597 2°56.095 125.1 0.1 214 -999
2005-08-29 06:32:56 51°13.598 2°56.095 125 0.1 298 -999
2005-08-29 06:33:56 51°13.598 2°56.095 125 0.1 77 -999
2005-08-29 06:34:56 51°13.598 2°56.095 125 0.1 18 -999
2005-08-29 06:35:56 51°13.598 2°56.094 124.9 0.1 276 -999
2005-08-29 06:36:56 51°13.597 2°56.094 124.9 -999 15 -999
2005-08-29 06:37:56 51°13.598 2°56.094 124.8 -999 245 -999
2005-08-29 06:38:56 51°13.598 2°56.094 125 -999 96 -999
2005-08-29 06:39:56 51°13.598 2°56.094 124.9 -999 269 -999
2005-08-29 06:40:56 51°13.599 2°56.095 124.9 -999 189 -999
2005-08-29 06:41:56 51°13.598 2°56.095 124.9 -999 136 -999
2005-08-29 06:42:56 51°13.599 2°56.095 124.9 -999 28 -999
2005-08-29 06:43:56 51°13.599 2°56.095 124.9 -999 352 -999
2005-08-29 06:44:56 51°13.599 2°56.095 124.8 -999 172 -999
2005-08-29 06:45:57 51°13.599 2°56.095 124.8 -999 59 -999
2005-08-29 06:46:56 51°13.599 2°56.096 124.8 -999 199 -999
2005-08-29 06:47:56 51°13.598 2°56.095 124.8 -999 199 -999
2005-08-29 06:48:56 51°13.597 2°56.095 124.6 0.1 99 -999
2005-08-29 06:49:56 51°13.597 2°56.094 124.6 -999 136 -999
2005-08-29 06:50:57 51°13.598 2°56.095 124.6 0.1 250 -999
2005-08-29 06:51:56 51°13.598 2°56.095 124.7 -999 33 -999
2005-08-29 06:52:56 51°13.599 2°56.096 124.7 0.1 319 -999
2005-08-29 06:53:56 51°13.598 2°56.094 124.8 0.2 233 -999
2005-08-29 06:54:56 51°13.598 2°56.094 124.8 -999 308 -999
2005-08-29 06:55:57 51°13.597 2°56.094 125 0.1 283 -999
2005-08-29 06:56:56 51°13.598 2°56.095 124.8 -999 113 -999
2005-08-29 06:57:56 51°13.598 2°56.094 124.8 -999 63 -999
2005-08-29 06:58:56 51°13.598 2°56.094 124.8 0.1 52 -999
2005-08-29 06:59:56 51°13.598 2°56.094 124.9 -999 109 -999
2005-08-29 07:00:56 51°13.598 2°56.094 124.9 -999 117 -999
2005-08-29 07:01:56 51°13.599 2°56.094 124.9 0.1 295 -999
2005-08-29 07:02:56 51°13.599 2°56.095 125 -999 80 -999
2005-08-29 07:03:56 51°13.596 2°56.095 125 -999 208 -999
2005-08-29 07:04:56 51°13.597 2°56.094 125 -999 40 -999
2005-08-29 07:05:56 51°13.596 2°56.094 125.1 -999 65 -999
2005-08-29 07:06:56 51°13.597 2°56.095 125.1 -999 102 -999
2005-08-29 07:07:56 51°13.598 2°56.094 125.2 -999 23 -999
2005-08-29 07:08:56 51°13.597 2°56.094 125.2 -999 290 -999
2005-08-29 07:09:56 51°13.596 2°56.094 125.2 -999 230 -999
2005-08-29 07:10:56 51°13.596 2°56.094 125.3 -999 245 -999
2005-08-29 07:11:56 51°13.596 2°56.094 125.3 0.1 73 -999
2005-08-29 07:12:56 51°13.597 2°56.095 125.3 -999 53 -999
2005-08-29 07:13:57 51°13.598 2°56.095 125.3 -999 125 -999
2005-08-29 07:14:56 51°13.598 2°56.094 125.3 -999 97 -999
2005-08-29 07:15:56 51°13.597 2°56.094 125.3 0.1 66 -999
2005-08-29 07:16:56 51°13.598 2°56.094 125.3 -999 306 -999
2005-08-29 07:17:56 51°13.597 2°56.094 125.3 -999 55 -999
2005-08-29 07:18:56 51°13.597 2°56.095 125.3 0.1 93 -999
2005-08-29 07:19:56 51°13.596 2°56.096 125.3 0.1 100 -999
2005-08-29 07:20:56 51°13.597 2°56.098 125.3 -999 76 -999
2005-08-29 07:21:56 51°13.599 2°56.097 125.3 0.1 89 -999
2005-08-29 07:22:56 51°13.598 2°56.095 125.2 0.1 293 -999
2005-08-29 07:23:56 51°13.596 2°56.096 125.2 -999 242 -999
2005-08-29 07:24:56 51°13.596 2°56.094 125.2 -999 269 -999
2005-08-29 07:25:56 51°13.596 2°56.095 125.2 -999 94 -999
2005-08-29 07:26:56 51°13.597 2°56.095 125.2 0.1 289 -999
2005-08-29 07:27:56 51°13.598 2°56.095 125.2 -999 300 -999
2005-08-29 07:28:56 51°13.598 2°56.095 125.1 0.1 94 -999
2005-08-29 07:29:56 51°13.599 2°56.095 125.1 -999 224 -999
2005-08-29 07:30:56 51°13.599 2°56.095 125.1 0.1 114 -999
2005-08-29 07:31:57 51°13.596 2°56.097 125.1 -999 74 -999
2005-08-29 07:32:56 51°13.597 2°56.096 125.1 0.1 275 -999
2005-08-29 07:33:56 51°13.599 2°56.096 125.1 -999 175 -999
2005-08-29 07:34:56 51°13.599 2°56.096 125.1 0.1 344 -999
2005-08-29 07:35:56 51°13.599 2°56.096 125.1 -999 124 -999
2005-08-29 07:36:56 51°13.598 2°56.096 125.1 -999 6 -999
2005-08-29 07:37:56 51°13.597 2°56.096 125.1 -999 156 -999
2005-08-29 07:38:57 51°13.598 2°56.097 125.1 -999 214 -999
2005-08-29 07:39:56 51°13.598 2°56.097 125 -999 354 -999
2005-08-29 07:40:57 51°13.598 2°56.097 125 -999 149 -999
2005-08-29 07:41:56 51°13.599 2°56.097 125 -999 14 -999
2005-08-29 07:42:56 51°13.599 2°56.097 125 0.1 349 -999
2005-08-29 07:43:56 51°13.599 2°56.097 125 -999 147 -999
2005-08-29 07:44:56 51°13.599 2°56.096 124.9 -999 337 -999
2005-08-29 07:45:56 51°13.598 2°56.096 125 -999 1 -999
2005-08-29 07:46:56 51°13.598 2°56.096 125 -999 126 -999
2005-08-29 07:47:57 51°13.599 2°56.097 124.9 -999 12 -999
2005-08-29 07:48:56 51°13.599 2°56.097 124.9 0.1 18 -999
2005-08-29 07:49:56 51°13.599 2°56.097 124.9 -999 174 -999
2005-08-29 07:50:56 51°13.599 2°56.096 124.9 -999 66 -999
2005-08-29 07:51:56 51°13.599 2°56.096 124.9 -999 313 -999
2005-08-29 07:52:56 51°13.598 2°56.096 124.9 -999 247 -999
2005-08-29 07:53:56 51°13.598 2°56.095 124.9 -999 43 -999
2005-08-29 07:54:56 51°13.598 2°56.095 124.9 -999 203 -999
2005-08-29 07:55:56 51°13.598 2°56.095 124.9 -999 75 -999
2005-08-29 07:56:57 51°13.598 2°56.094 124.9 0.1 201 -999
2005-08-29 07:57:56 51°13.598 2°56.094 125 -999 122 -999
2005-08-29 07:58:56 51°13.598 2°56.094 125 -999 131 -999
2005-08-29 07:59:56 51°13.599 2°56.094 125 -999 169 -999
2005-08-29 08:00:56 51°13.599 2°56.094 125 0.1 188 -999
2005-08-29 08:01:57 51°13.598 2°56.094 125 0.1 172 -999
2005-08-29 08:02:56 51°13.598 2°56.094 125 -999 89 -999
2005-08-29 08:03:56 51°13.598 2°56.094 125 -999 342 -999
2005-08-29 08:04:56 51°13.598 2°56.095 125 -999 346 -999
2005-08-29 08:05:57 51°13.598 2°56.096 125 -999 224 -999
2005-08-29 08:06:56 51°13.599 2°56.096 125 -999 231 -999
2005-08-29 08:07:56 51°13.599 2°56.096 125 -999 119 -999
2005-08-29 08:08:56 51°13.599 2°56.096 125 -999 34 -999
2005-08-29 08:09:56 51°13.599 2°56.096 125 -999 34 -999
2005-08-29 08:10:57 51°13.599 2°56.096 125 -999 6 -999
2005-08-29 08:11:56 51°13.596 2°56.096 124.9 0.1 196 -999
2005-08-29 08:12:56 51°13.597 2°56.097 124.8 -999 227 -999
2005-08-29 08:13:56 51°13.599 2°56.096 124.8 -999 350 -999
2005-08-29 08:14:57 51°13.599 2°56.096 124.8 0.1 15 -999
2005-08-29 08:15:56 51°13.6 2°56.095 124.8 0.1 5 -999
2005-08-29 08:16:56 51°13.6 2°56.095 124.8 -999 324 -999
2005-08-29 08:17:57 51°13.599 2°56.095 124.8 -999 40 -999
2005-08-29 08:18:56 51°13.599 2°56.094 124.8 0.1 13 -999
2005-08-29 08:19:56 51°13.599 2°56.095 124.8 -999 338 -999
2005-08-29 08:20:56 51°13.599 2°56.094 124.8 -999 350 -999
2005-08-29 08:21:57 51°13.599 2°56.094 124.8 -999 237 -999
2005-08-29 08:22:56 51°13.599 2°56.095 124.8 -999 8 -999
2005-08-29 08:23:56 51°13.598 2°56.095 124.8 0.1 30 -999
2005-08-29 08:24:56 51°13.598 2°56.095 124.7 -999 212 -999
2005-08-29 08:25:57 51°13.598 2°56.095 124.8 -999 214 -999
2005-08-29 08:26:57 51°13.599 2°56.095 124.8 -999 202 -999
2005-08-29 08:27:56 51°13.599 2°56.094 124.7 -999 152 -999
2005-08-29 08:28:57 51°13.598 2°56.094 124.7 -999 28 -999
2005-08-29 08:29:56 51°13.599 2°56.094 124.8 -999 39 -999
2005-08-29 08:30:57 51°13.599 2°56.094 124.8 -999 204 -999
2005-08-29 08:31:56 51°13.599 2°56.093 124.7 -999 104 -999
2005-08-29 08:32:57 51°13.6 2°56.094 124.7 0.1 177 -999
2005-08-29 08:33:56 51°13.599 2°56.093 124.6 0.1 6 -999
2005-08-29 08:34:56 51°13.599 2°56.094 124.6 -999 2 -999
2005-08-29 08:35:57 51°13.598 2°56.095 124.5 0.1 187 -999
2005-08-29 08:36:56 51°13.598 2°56.095 124.5 -999 178 -999
2005-08-29 08:37:57 51°13.599 2°56.095 124.5 -999 356 -999
2005-08-29 08:38:56 51°13.598 2°56.094 124.5 0.1 358 -999
2005-08-29 08:39:55 51°13.599 2°56.095 124.4 -999 9 8.3
2005-08-29 08:40:55 51°13.598 2°56.095 124.4 -999 240 8.4
2005-08-29 08:41:55 51°13.598 2°56.095 124.3 -999 169 8.4
2005-08-29 08:42:55 51°13.598 2°56.095 124.3 -999 280 8.3
2005-08-29 08:43:55 51°13.598 2°56.095 124.2 0.1 357 8.4
2005-08-29 08:44:55 51°13.598 2°56.095 124.2 0.1 1 8.5
2005-08-29 08:45:55 51°13.599 2°56.094 124.2 0.1 358 8.3
2005-08-29 08:46:55 51°13.598 2°56.094 124.1 -999 352 8.4
2005-08-29 08:47:55 51°13.598 2°56.094 124.1 0.1 196 8.4
2005-08-29 08:48:55 51°13.598 2°56.094 124.2 -999 311 8.4
2005-08-29 08:49:55 51°13.597 2°56.094 124.3 -999 310 8.4
2005-08-29 08:50:55 51°13.597 2°56.095 124.3 -999 226 8.3
2005-08-29 08:51:55 51°13.597 2°56.096 124.5 0.1 172 8.4
2005-08-29 08:52:55 51°13.598 2°56.095 123.6 0.1 204 8.3
2005-08-29 08:53:55 51°13.598 2°56.095 124.7 0.1 351 8.4
2005-08-29 08:54:55 51°13.599 2°56.095 124.7 0.1 357 8.4
2005-08-29 08:55:55 51°13.599 2°56.094 124.7 -999 201 8.4
2005-08-29 08:56:55 51°13.598 2°56.096 124.7 -999 195 8.4
2005-08-29 08:57:55 51°13.599 2°56.096 124.4 0.1 355 8.3
2005-08-29 08:58:55 51°13.598 2°56.096 124.5 -999 338 8.3
2005-08-29 08:59:55 51°13.6 2°56.096 124.4 -999 192 8.3
2005-08-29 09:00:55 51°13.599 2°56.096 124.4 0.1 359 8.3
2005-08-29 09:01:55 51°13.601 2°56.096 124.4 -999 178 8.3
2005-08-29 09:02:55 51°13.598 2°56.095 125.4 -999 195 8.3
2005-08-29 09:03:55 51°13.599 2°56.094 124.3 0.2 332 8.3
2005-08-29 09:04:55 51°13.597 2°56.092 129.3 0.1 22 8.4
2005-08-29 09:05:55 51°13.599 2°56.09 132.3 0.2 310 8.7
2005-08-29 09:06:55 51°13.594 2°56.096 137.1 1.1 134 9.1
2005-08-29 09:07:55 51°13.561 2°56.145 141 3.6 138 11.5
2005-08-29 09:08:55 51°13.55 2°56.225 78.3 1.9 77 11
2005-08-29 09:09:56 51°13.538 2°56.205 59.5 1.2 232 -999
2005-08-29 09:10:55 51°13.538 2°56.21 21.8 0.8 189 11.6
2005-08-29 09:11:55 51°13.538 2°56.214 355.4 1.3 159 11.4
2005-08-29 09:12:55 51°13.548 2°56.196 309.9 2.7 309 -999
2005-08-29 09:13:55 51°13.568 2°56.124 292.3 3 291 11.4
2005-08-29 09:14:55 51°13.588 2°56.06 299.7 2.6 298 11.3
2005-08-29 09:15:55 51°13.609 2°56.002 306.8 2.6 301 11.2
2005-08-29 09:16:55 51°13.632 2°55.946 308.7 2.5 305 11
2005-08-29 09:17:55 51°13.659 2°55.892 311.4 2.8 308 10.8
2005-08-29 09:18:55 51°13.69 2°55.828 310.7 3.2 309 10.7
2005-08-29 09:19:55 51°13.718 2°55.775 313.6 2.5 311 13.8
2005-08-29 09:20:55 51°13.744 2°55.736 317.1 2.1 317 10.5
2005-08-29 09:21:55 51°13.788 2°55.676 326.6 4.6 322 11
2005-08-29 09:22:55 51°13.877 2°55.599 339.1 6.9 335 11.7
2005-08-29 09:23:55 51°13.978 2°55.528 342.6 6.5 339 11.7
2005-08-29 09:24:55 51°14.085 2°55.457 339.2 7.3 334 11.3
2005-08-29 09:25:55 51°14.203 2°55.353 330.1 9.1 326 11.9
2005-08-29 09:26:55 51°14.312 2°55.17 312.8 9.7 310 11.7
2005-08-29 09:27:55 51°14.406 2°54.949 295.7 10.4 299 11.8
2005-08-29 09:28:55 51°14.422 2°54.649 264.7 12.2 263 11.7
2005-08-29 09:29:55 51°14.381 2°54.321 257.4 12.6 255 11.1
2005-08-29 09:30:55 51°14.298 2°54.016 246.9 12.6 244 11
2005-08-29 09:31:55 51°14.208 2°53.715 247.1 12.6 245 11
2005-08-29 09:32:54 51°14.112 2°53.422 241 12.6 238 11.2
2005-08-29 09:33:55 51°14 2°53.136 241.7 12.7 239 11.5
2005-08-29 09:34:55 51°13.89 2°52.85 241.6 12.6 239 11.7
2005-08-29 09:35:55 51°13.78 2°52.563 241.3 12.6 238 11.8
2005-08-29 09:36:55 51°13.67 2°52.277 242 12.7 238 12
2005-08-29 09:37:55 51°13.56 2°51.991 241.7 12.7 238 12
2005-08-29 09:38:55 51°13.45 2°51.705 242 12.7 239 12.1
2005-08-29 09:39:55 51°13.34 2°51.417 242 12.8 238 12.1
2005-08-29 09:40:55 51°13.229 2°51.13 242 12.7 239 12.1
2005-08-29 09:41:55 51°13.119 2°50.842 242.6 12.7 239 12.2
2005-08-29 09:42:55 51°13.007 2°50.555 242.4 12.9 239 12.2
2005-08-29 09:43:55 51°12.897 2°50.263 242.5 12.7 239 12.2
2005-08-29 09:44:55 51°12.786 2°49.973 241.6 12.7 238 12.2
2005-08-29 09:45:55 51°12.674 2°49.683 240.6 12.8 237 12.3
2005-08-29 09:46:55 51°12.563 2°49.393 245.4 12.9 243 12.2
2005-08-29 09:47:55 51°12.472 2°49.083 249.2 12.9 246 12.4
2005-08-29 09:48:55 51°12.386 2°48.769 249.8 12.9 247 12.6
2005-08-29 09:49:55 51°12.3 2°48.456 248.9 12.9 245 12.9
2005-08-29 09:50:55 51°12.218 2°48.14 252.4 12.9 248 13.1
2005-08-29 09:51:55 51°12.137 2°47.825 249.1 12.9 246 13.4
2005-08-29 09:52:55 51°12.05 2°47.514 248.9 12.9 245 13.5
2005-08-29 09:53:55 51°11.964 2°47.2 249.1 12.9 247 13.5
2005-08-29 09:54:55 51°11.879 2°46.885 249.3 13 247 13.6
2005-08-29 09:55:55 51°11.793 2°46.57 249.5 12.9 247 13.8
2005-08-29 09:56:55 51°11.708 2°46.255 249.1 12.9 247 13.8
2005-08-29 09:57:55 51°11.622 2°45.941 249.1 12.9 247 13.7
2005-08-29 09:58:55 51°11.536 2°45.627 249.3 12.9 247 13.6
2005-08-29 09:59:55 51°11.451 2°45.312 249.4 12.9 247 13.5
2005-08-29 10:00:55 51°11.364 2°44.997 249 13 246 13.4
2005-08-29 10:01:55 51°11.278 2°44.682 249.5 12.9 246 13.3
2005-08-29 10:02:54 51°11.192 2°44.37 248.9 12.9 246 13.2
2005-08-29 10:03:55 51°11.106 2°44.051 250 13 247 13.1
2005-08-29 10:04:55 51°11.019 2°43.739 249 13 246 12.9
2005-08-29 10:05:55 51°10.932 2°43.425 249 12.9 246 12.9
2005-08-29 10:06:55 51°10.847 2°43.109 249.8 12.9 248 12.7
2005-08-29 10:07:55 51°10.761 2°42.795 249.5 12.9 247 12.6
2005-08-29 10:08:55 51°10.676 2°42.483 249.6 12.8 247 12.5
2005-08-29 10:09:55 51°10.59 2°42.166 249.8 12.8 247 12.4
2005-08-29 10:10:55 51°10.51 2°41.852 253.5 12.9 254 12.4
2005-08-29 10:11:55 51°10.456 2°41.519 258.3 12.9 256 12.7
2005-08-29 10:12:55 51°10.402 2°41.191 257.6 13 255 12.7
2005-08-29 10:13:54 51°10.347 2°40.863 257.6 13 256 12.9
2005-08-29 10:14:55 51°10.292 2°40.529 257.7 13 255 13
2005-08-29 10:15:55 51°10.236 2°40.195 257.1 12.9 255 13.3
2005-08-29 10:16:55 51°10.181 2°39.867 257 12.9 255 13.6
2005-08-29 10:17:55 51°10.125 2°39.537 257.4 12.9 255 13.9
2005-08-29 10:18:55 51°10.069 2°39.206 257 12.9 255 14.6
2005-08-29 10:19:55 51°10.012 2°38.873 257.7 12.9 256 15.2
2005-08-29 10:20:55 51°9.958 2°38.545 257.4 12.8 256 15.7
2005-08-29 10:21:55 51°9.904 2°38.216 257.8 12.9 256 16.4
2005-08-29 10:22:55 51°9.851 2°37.884 257.8 12.9 256 17.3
2005-08-29 10:23:55 51°9.796 2°37.551 257.3 13 255 17.5
2005-08-29 10:24:54 51°9.742 2°37.226 256.8 12.9 255 17.6
2005-08-29 10:25:55 51°9.685 2°36.893 256.8 12.9 254 17.4
2005-08-29 10:26:55 51°9.629 2°36.562 257.3 13 255 17.8
2005-08-29 10:27:55 51°9.574 2°36.229 257.6 13 255 17.8
2005-08-29 10:28:55 51°9.518 2°35.895 257.1 13 255 17.9
2005-08-29 10:29:55 51°9.462 2°35.562 257.6 13 256 18
2005-08-29 10:30:55 51°9.422 2°35.223 264.5 13 262 18.5
2005-08-29 10:31:55 51°9.392 2°34.877 264.3 13.1 262 18.7
2005-08-29 10:32:55 51°9.354 2°34.538 259.8 13.1 258 18.9
2005-08-29 10:33:55 51°9.307 2°34.202 258.9 13 257 19.6
2005-08-29 10:34:55 51°9.261 2°33.869 258.5 12.9 257 18.5
2005-08-29 10:35:54 51°9.214 2°33.535 259.7 13.1 257 18.3
2005-08-29 10:36:55 51°9.171 2°33.276 261.5 8.6 259 17.9
2005-08-29 10:37:55 51°9.142 2°33.066 257.4 7.9 254 17.4
2005-08-29 10:38:55 51°9.11 2°32.898 254 5.1 253 16.7
2005-08-29 10:39:55 51°9.101 2°32.799 269.9 3 269 15.4
2005-08-29 10:40:55 51°9.101 2°32.77 286.2 0.4 108 14.8
2005-08-29 10:41:55 51°9.099 2°32.776 289.8 0.2 103 15
2005-08-29 10:42:55 51°9.098 2°32.781 290.5 0.2 85 15.1
2005-08-29 10:43:55 51°9.099 2°32.785 294.6 0.1 69 15.1
2005-08-29 10:44:55 51°9.1 2°32.787 299.4 0.1 41 15.1
2005-08-29 10:45:55 51°9.102 2°32.789 305.6 0.1 11 15
2005-08-29 10:46:55 51°9.105 2°32.789 311.9 0.3 24 14.9
2005-08-29 10:47:54 51°9.109 2°32.79 318.7 0.2 4 14.8
2005-08-29 10:48:54 51°9.113 2°32.791 327.2 0.2 9 14.7
2005-08-29 10:49:55 51°9.117 2°32.792 335.9 0.4 12 14.5
2005-08-29 10:50:55 51°9.123 2°32.793 343.9 0.5 19 14.2
2005-08-29 10:51:54 51°9.129 2°32.795 351.2 0.4 22 14.1
2005-08-29 10:52:55 51°9.136 2°32.799 357.1 0.4 13 13.9
2005-08-29 10:53:55 51°9.142 2°32.802 0.5 0.5 24 13.7
2005-08-29 10:54:55 51°9.15 2°32.806 2 0.5 20 13.6
2005-08-29 10:55:55 51°9.157 2°32.809 2 0.4 14 13.3
2005-08-29 10:56:55 51°9.164 2°32.811 0.8 0.5 28 13.1
2005-08-29 10:57:55 51°9.172 2°32.815 359.3 0.5 17 13
2005-08-29 10:58:55 51°9.178 2°32.816 358.1 0.4 4 12.7
2005-08-29 10:59:55 51°9.185 2°32.819 357.1 0.5 18 12.5
2005-08-29 11:00:54 51°9.192 2°32.82 356.7 0.5 12 12.3
2005-08-29 11:01:55 51°9.2 2°32.822 356.9 0.4 14 12.2
2005-08-29 11:02:55 51°9.207 2°32.824 356.9 0.4 13 12.1
2005-08-29 11:03:55 51°9.214 2°32.826 356.4 0.5 19 11.8
2005-08-29 11:04:55 51°9.22 2°32.828 356.4 0.4 9 11.7
2005-08-29 11:05:55 51°9.227 2°32.829 356.4 0.4 359 11.6
2005-08-29 11:06:55 51°9.234 2°32.83 356.3 0.4 359 11.6
2005-08-29 11:07:55 51°9.265 2°32.779 293.9 4 287 10.5
2005-08-29 11:08:55 51°9.222 2°32.695 199.4 5 194 10.5
2005-08-29 11:09:55 51°9.118 2°32.699 180 6.9 178 12.7
2005-08-29 11:10:55 51°9.033 2°32.691 191.9 4.2 190 15.8
2005-08-29 11:11:55 51°8.982 2°32.666 206.1 2.8 204 17.4
2005-08-29 11:12:55 51°8.947 2°32.638 214.3 2.1 211 18.1
2005-08-29 11:13:55 51°8.921 2°32.613 218.6 1.7 212 18.5
2005-08-29 11:14:55 51°8.901 2°32.589 221.5 1.4 216 18.8
2005-08-29 11:15:55 51°8.893 2°32.585 223.9 0.2 182 18.9
2005-08-29 11:16:55 51°8.889 2°32.585 217.2 0.3 164 18.9
2005-08-29 11:17:55 51°8.884 2°32.586 210 0.3 192 19.1
2005-08-29 11:18:55 51°8.878 2°32.586 205.7 0.4 162 19.1
2005-08-29 11:19:54 51°8.872 2°32.587 202.2 0.4 184 19.2
2005-08-29 11:20:55 51°8.866 2°32.587 201.5 0.4 186 19.2
2005-08-29 11:21:55 51°8.859 2°32.588 203.5 0.4 181 19.3
2005-08-29 11:22:55 51°8.852 2°32.586 206.8 0.4 189 19.3
2005-08-29 11:23:55 51°8.84 2°32.582 207.7 1.1 199 19.4
2005-08-29 11:24:55 51°8.815 2°32.567 205.3 1.7 201 19.3
2005-08-29 11:25:54 51°8.787 2°32.551 203.2 1.8 201 19.4
2005-08-29 11:26:55 51°8.758 2°32.535 200.2 1.8 197 19.3
2005-08-29 11:27:55 51°8.728 2°32.524 194.4 1.9 192 19.4
2005-08-29 11:28:55 51°8.697 2°32.517 186.8 1.8 184 19.4
2005-08-29 11:29:55 51°8.667 2°32.517 177.7 1.8 176 19.3
2005-08-29 11:30:55 51°8.636 2°32.525 166.8 1.9 168 19.2
2005-08-29 11:31:55 51°8.608 2°32.544 155.7 1.8 155 19.1
2005-08-29 11:32:55 51°8.583 2°32.57 143.9 1.8 142 19.3
2005-08-29 11:33:55 51°8.562 2°32.604 132.1 1.8 128 19.9
2005-08-29 11:34:54 51°8.547 2°32.644 119.7 1.8 119 20
2005-08-29 11:35:55 51°8.537 2°32.689 107.7 1.8 104 19.7
2005-08-29 11:36:55 51°8.531 2°32.743 106.9 2.8 106 19.5
2005-08-29 11:37:55 51°8.472 2°32.777 194.1 5 193 18.3
2005-08-29 11:38:55 51°8.365 2°32.708 205.4 7.1 202 18.3
2005-08-29 11:39:55 51°8.23 2°32.657 186.9 9.8 185 18.6
2005-08-29 11:40:55 51°8.07 2°32.692 153.5 8.4 149 17
2005-08-29 11:41:55 51°8.031 2°32.809 95.1 3.9 91 16.3
2005-08-29 11:42:55 51°8.052 2°32.892 60.6 3.4 59 16.3
2005-08-29 11:43:55 51°8.081 2°32.97 63.4 3.4 61 16.4
2005-08-29 11:44:55 51°8.105 2°33.046 65.9 3.3 64 16.4
2005-08-29 11:45:55 51°8.128 2°33.117 61 2.9 61 16.6
2005-08-29 11:46:55 51°8.155 2°33.177 54.3 2.7 53 16.7
2005-08-29 11:47:55 51°8.182 2°33.232 53 2.6 52 16.8
2005-08-29 11:48:55 51°8.21 2°33.287 52.9 2.7 51 16.8
2005-08-29 11:49:54 51°8.237 2°33.343 55.2 2.7 54 16.9
2005-08-29 11:50:55 51°8.264 2°33.401 57.2 2.6 55 17.1
2005-08-29 11:51:55 51°8.289 2°33.462 59.8 2.8 57 17.1
2005-08-29 11:52:55 51°8.312 2°33.525 63.5 2.7 62 17.1
2005-08-29 11:53:54 51°8.333 2°33.59 64 2.7 63 17.1
2005-08-29 11:54:55 51°8.355 2°33.654 63.8 2.7 62 17.1
2005-08-29 11:55:55 51°8.376 2°33.717 64.2 2.7 62 17.1
2005-08-29 11:56:55 51°8.397 2°33.779 63.5 2.6 61 17.1
2005-08-29 11:57:55 51°8.419 2°33.84 63.1 2.7 61 17.1
2005-08-29 11:58:55 51°8.441 2°33.902 63.1 2.7 62 17.1
2005-08-29 11:59:55 51°8.462 2°33.964 63.2 2.8 62 17.1
2005-08-29 12:00:55 51°8.483 2°34.026 63.5 2.7 60 17.2
2005-08-29 12:01:55 51°8.504 2°34.088 63.8 2.6 60 17.2
2005-08-29 12:02:55 51°8.524 2°34.149 63.8 2.6 64 17.2
2005-08-29 12:03:55 51°8.546 2°34.21 63.8 2.7 62 17.2
2005-08-29 12:04:55 51°8.567 2°34.271 63.1 2.6 62 17.2
2005-08-29 12:05:55 51°8.589 2°34.332 61.3 2.6 59 17.3
2005-08-29 12:06:55 51°8.612 2°34.392 60.7 2.7 59 17.3
2005-08-29 12:07:55 51°8.635 2°34.451 61.3 2.6 59 17.2
2005-08-29 12:08:55 51°8.657 2°34.51 61 2.5 59 17.2
2005-08-29 12:09:55 51°8.68 2°34.569 61 2.6 60 17.1
2005-08-29 12:10:55 51°8.703 2°34.628 60.8 2.7 56 16.9
2005-08-29 12:11:55 51°8.726 2°34.687 60.6 2.7 59 16.9
2005-08-29 12:12:55 51°8.749 2°34.746 60.3 2.6 59 16.8
2005-08-29 12:13:55 51°8.771 2°34.805 61.2 2.6 59 16.8
2005-08-29 12:14:55 51°8.793 2°34.863 61.2 2.5 59 16.9
2005-08-29 12:15:55 51°8.815 2°34.922 61 2.6 57 16.6
2005-08-29 12:16:55 51°8.837 2°34.981 61 2.6 60 16.5
2005-08-29 12:17:55 51°8.859 2°35.042 63.1 2.7 60 16.7
2005-08-29 12:18:55 51°8.88 2°35.106 63.2 2.8 63 16.7
2005-08-29 12:19:55 51°8.903 2°35.169 62.3 2.8 62 16.5
2005-08-29 12:20:55 51°8.925 2°35.233 61.9 2.8 60 16.6
2005-08-29 12:21:55 51°8.948 2°35.295 58 2.5 56 16.5
2005-08-29 12:22:55 51°8.97 2°35.336 47.5 1.8 50 16.6
2005-08-29 12:23:55 51°8.988 2°35.361 40.8 1.3 36 16.5
2005-08-29 12:24:55 51°9.003 2°35.379 38.9 1.1 33 16.4
2005-08-29 12:25:55 51°9.017 2°35.413 75.7 1.7 72 16.5
2005-08-29 12:26:55 51°9.01 2°35.457 112.6 1.6 118 16.4
2005-08-29 12:27:55 51°8.989 2°35.49 143.9 1.9 149 16.3
2005-08-29 12:28:55 51°8.962 2°35.503 161.5 1.6 171 16.2
2005-08-29 12:29:55 51°8.939 2°35.507 167 1.3 181 15.9
2005-08-29 12:30:55 51°8.919 2°35.507 171.9 1.2 178 15.6
2005-08-29 12:31:55 51°8.901 2°35.503 176.4 1 192 15.2
2005-08-29 12:32:55 51°8.849 2°35.48 205.5 4.7 206 14.4
2005-08-29 12:33:55 51°8.789 2°35.381 238.9 5 236 13.8
2005-08-29 12:34:55 51°8.757 2°35.269 257.1 4.6 251 13.9
2005-08-29 12:35:55 51°8.739 2°35.163 262.8 3.8 256 14.4
2005-08-29 12:36:55 51°8.725 2°35.077 262.2 3.2 256 14.8
2005-08-29 12:37:46 51°19.36 2°45.244 124.8 -999 -999 -999
2005-08-29 12:39:15 51°8.691 2°34.907 257.1 2.7 250 15.3
2005-08-29 12:40:15 51°8.677 2°34.839 260.7 2.7 251 15.5
2005-08-29 12:41:15 51°8.664 2°34.771 263.6 2.7 254 15.9
2005-08-29 12:42:15 51°8.652 2°34.702 264.4 2.7 255 16.2
2005-08-29 12:43:15 51°8.641 2°34.632 264.7 2.7 256 16.4
2005-08-29 12:44:14 51°8.629 2°34.564 263.4 2.7 254 16.5
2005-08-29 12:45:15 51°8.613 2°34.495 255.7 2.7 247 16.6
2005-08-29 12:46:15 51°8.595 2°34.429 252.9 2.7 245 16.8
2005-08-29 12:47:15 51°8.575 2°34.363 253.2 2.7 246 16.9
2005-08-29 12:48:15 51°8.555 2°34.297 253.7 2.8 247 16.9
2005-08-29 12:49:15 51°8.536 2°34.232 251.7 2.7 246 16.9
2005-08-29 12:50:15 51°8.514 2°34.167 249.3 2.8 240 16.9
2005-08-29 12:51:15 51°8.493 2°34.104 247.5 2.8 242 16.9
2005-08-29 12:52:15 51°8.469 2°34.042 245.9 2.7 240 16.9
2005-08-29 12:53:15 51°8.445 2°33.98 246 2.7 239 16.8
2005-08-29 12:54:15 51°8.422 2°33.918 246.3 2.7 237 16.7
2005-08-29 12:55:15 51°8.399 2°33.856 246.7 2.8 239 16.7
2005-08-29 12:56:15 51°8.375 2°33.794 246.2 2.7 239 16.7
2005-08-29 12:57:15 51°8.352 2°33.731 246.8 2.8 240 16.6
2005-08-29 12:58:15 51°8.329 2°33.668 247.1 2.8 240 16.6
2005-08-29 12:59:15 51°8.306 2°33.605 247 2.7 241 16.5
2005-08-29 13:00:15 51°8.284 2°33.54 247.5 2.8 239 16.5
2005-08-29 13:01:15 51°8.262 2°33.476 246.7 2.8 239 16.4
2005-08-29 13:02:15 51°8.239 2°33.412 247 2.8 240 16.3
2005-08-29 13:03:15 51°8.217 2°33.347 247.5 2.7 243 16.2
2005-08-29 13:04:15 51°8.194 2°33.282 247 2.8 239 16.2
2005-08-29 13:05:15 51°8.171 2°33.218 247.1 2.8 239 16.2
2005-08-29 13:06:15 51°8.149 2°33.154 247.3 2.8 242 16
2005-08-29 13:07:15 51°8.126 2°33.089 247.1 2.8 241 16
2005-08-29 13:08:15 51°8.104 2°33.025 247.4 2.7 242 16
2005-08-29 13:09:15 51°8.081 2°32.96 247.3 2.7 241 15.8
2005-08-29 13:10:15 51°8.058 2°32.891 251.9 3 245 15.8
2005-08-29 13:11:15 51°8.043 2°32.816 265.8 3 257 15.9
2005-08-29 13:12:15 51°8.037 2°32.737 276.1 3 266 16
2005-08-29 13:13:15 51°8.034 2°32.658 273.9 3 267 16.2
2005-08-29 13:14:16 51°8.028 2°32.576 275.6 3.1 266 16.4
2005-08-29 13:15:15 51°8.025 2°32.495 280.8 2.9 267 16.8
2005-08-29 13:16:15 51°8.023 2°32.428 284.2 2.3 267 16.5
2005-08-29 13:17:15 51°8.022 2°32.374 288.6 1.9 271 16.6
2005-08-29 13:18:15 51°8.021 2°32.329 293.3 1.6 266 16.2
2005-08-29 13:19:15 51°8.021 2°32.293 298.6 1.3 272 15.8
2005-08-29 13:20:15 51°8.02 2°32.261 304.4 1 268 15.6
2005-08-29 13:21:15 51°8.02 2°32.234 309.1 1 276 15.6
2005-08-29 13:22:15 51°8.051 2°32.179 340 4.9 328 16.6
2005-08-29 13:23:15 51°8.17 2°32.262 45.9 11.1 42 17.6
2005-08-29 13:24:15 51°8.328 2°32.471 44.6 12.9 41 17.5
2005-08-29 13:25:15 51°8.49 2°32.689 44.2 12.9 40 18.4
2005-08-29 13:26:15 51°8.656 2°32.904 41.9 12.9 36 18.6
2005-08-29 13:27:15 51°8.827 2°33.108 41.6 12.9 36 17.9
2005-08-29 13:28:15 51°8.998 2°33.311 42 12.9 36 17.8
2005-08-29 13:29:15 51°9.171 2°33.518 42.3 12.8 37 17.5
2005-08-29 13:30:15 51°9.341 2°33.72 41.9 12.9 37 16.5
2005-08-29 13:31:15 51°9.512 2°33.93 44.5 12.9 39 14.4
2005-08-29 13:32:15 51°9.678 2°34.146 44.8 12.7 39 11.7
2005-08-29 13:33:15 51°9.842 2°34.359 44.2 12.8 39 10.4
2005-08-29 13:34:15 51°10.009 2°34.569 44.2 12.9 39 10.3
2005-08-29 13:35:15 51°10.175 2°34.784 44.4 13 39 10.6
2005-08-29 13:36:15 51°10.34 2°34.998 45 12.7 40 9.4
2005-08-29 13:37:15 51°10.506 2°35.211 43.8 12.7 38 9.1
2005-08-29 13:38:15 51°10.671 2°35.42 44.2 12.7 38 9.3
2005-08-29 13:39:15 51°10.837 2°35.635 44.5 12.8 39 9.6
2005-08-29 13:40:15 51°11.001 2°35.844 44.3 12.7 39 9.8
2005-08-29 13:41:15 51°11.167 2°36.054 43.5 12.7 38 10
2005-08-29 13:42:15 51°11.333 2°36.264 44.6 12.7 39 10.2
2005-08-29 13:43:15 51°11.499 2°36.474 44.8 12.7 39 10.3
2005-08-29 13:44:15 51°11.668 2°36.678 41.1 12.7 36 10.4
2005-08-29 13:45:15 51°11.844 2°36.871 38.5 12.7 33 10.2
2005-08-29 13:46:15 51°12.02 2°37.055 39.2 12.7 34 10.5
2005-08-29 13:47:15 51°12.197 2°37.243 38.9 12.8 33 10.8
2005-08-29 13:48:15 51°12.372 2°37.433 40.6 12.7 36 11.1
2005-08-29 13:49:15 51°12.541 2°37.638 42.5 12.7 37 11.7
2005-08-29 13:50:15 51°12.709 2°37.843 42.7 12.7 38 12.4
2005-08-29 13:51:15 51°12.878 2°38.052 42.8 12.7 38 12.9
2005-08-29 13:52:15 51°13.046 2°38.259 42 12.8 37 13.5
2005-08-29 13:53:15 51°13.213 2°38.464 42.8 12.8 38 13.9
2005-08-29 13:54:15 51°13.382 2°38.671 42.1 12.8 38 13.9
2005-08-29 13:55:16 51°13.554 2°38.881 41.9 12.8 37 13.8
2005-08-29 13:56:15 51°13.72 2°39.085 42.2 12.8 37 13.8
2005-08-29 13:57:15 51°13.893 2°39.29 39.4 12.8 36 13.7
2005-08-29 13:58:14 51°14.067 2°39.475 39.2 12.8 34 13.5
2005-08-29 13:59:15 51°14.248 2°39.666 39 12.8 33 13.2
2005-08-29 14:00:14 51°14.425 2°39.846 35.4 12.8 30 12.8
2005-08-29 14:01:15 51°14.611 2°40.022 36.5 12.9 31 12.7
2005-08-29 14:02:16 51°14.798 2°40.201 36.3 12.9 31 13
2005-08-29 14:03:15 51°14.981 2°40.374 36.3 12.9 31 12.3
2005-08-29 14:04:15 51°15.159 2°40.527 32.4 10.4 26 11.9
2005-08-29 14:05:15 51°15.273 2°40.62 34.8 6.2 27 11.8
2005-08-29 14:06:15 51°15.347 2°40.674 33.2 4.2 25 11.8
2005-08-29 14:07:15 51°15.405 2°40.713 35.8 3.6 24 11.8
2005-08-29 14:08:15 51°15.445 2°40.758 50 2.5 38 11.8
2005-08-29 14:09:15 51°15.469 2°40.785 46.1 1.4 27 12.2
2005-08-29 14:10:15 51°15.477 2°40.784 33.3 0.4 340 12.2
2005-08-29 14:11:16 51°15.478 2°40.774 20.3 0.6 236 12.2
2005-08-29 14:12:15 51°15.468 2°40.759 21.8 0.6 232 12.4
2005-08-29 14:13:15 51°15.458 2°40.743 29.9 0.8 224 11.9
2005-08-29 14:14:15 51°15.444 2°40.721 40.4 1.5 228 11.9
2005-08-29 14:15:15 51°15.426 2°40.686 52.3 1.6 231 12
2005-08-29 14:16:15 51°15.413 2°40.654 59.9 1.4 238 12.7
2005-08-29 14:17:15 51°15.404 2°40.624 68.2 1.2 243 13
2005-08-29 14:18:15 51°15.397 2°40.605 69 0.6 238 12.8
2005-08-29 14:19:15 51°15.393 2°40.592 66.1 0.6 250 12.5
2005-08-29 14:20:15 51°15.388 2°40.58 65.4 0.5 245 12.6
2005-08-29 14:21:15 51°15.384 2°40.568 64.5 0.5 246 12.9
2005-08-29 14:22:16 51°15.379 2°40.558 61.6 0.5 229 12.4
2005-08-29 14:23:15 51°15.375 2°40.548 57.7 0.5 247 13
2005-08-29 14:24:16 51°15.376 2°40.548 54.3 0.3 47 13
2005-08-29 14:25:15 51°15.389 2°40.567 52.8 1.5 44 12.8
2005-08-29 14:26:15 51°15.412 2°40.607 56 2.3 49 12.4
2005-08-29 14:27:16 51°15.436 2°40.663 63.8 2.7 59 12.3
2005-08-29 14:28:15 51°15.456 2°40.728 74.7 2.7 71 12.3
2005-08-29 14:29:14 51°15.468 2°40.798 81.1 2.7 84 12.1
2005-08-29 14:30:15 51°15.46 2°40.854 108.3 1.8 113 11.5
2005-08-29 14:31:15 51°15.444 2°40.884 120 1.4 138 11.7
2005-08-29 14:32:16 51°15.426 2°40.901 129.9 1.2 157 11.3
2005-08-29 14:33:15 51°15.409 2°40.907 140.1 1 168 11.3
2005-08-29 14:34:15 51°15.393 2°40.906 148.8 1 187 11.3
2005-08-29 14:35:16 51°15.344 2°40.94 143.7 6.6 146 11.7
2005-08-29 14:36:14 51°15.282 2°41.155 103.2 11.7 102 11
2005-08-29 14:37:15 51°15.24 2°41.475 101.8 12.3 101 11.2
2005-08-29 14:38:15 51°15.228 2°41.798 90.9 12.2 92 11.6
2005-08-29 14:39:15 51°15.239 2°42.119 90.7 12.1 89 11.5
2005-08-29 14:40:15 51°15.239 2°42.445 91.8 12.2 91 11
2005-08-29 14:41:15 51°15.238 2°42.768 91.4 12.3 90 12.7
2005-08-29 14:42:14 51°15.237 2°43.091 91.8 12.3 91 13.2
2005-08-29 14:43:15 51°15.233 2°43.419 90 12.1 82 12.8
2005-08-29 14:44:15 51°15.294 2°43.725 79.6 12.1 75 13
2005-08-29 14:45:15 51°15.295 2°44.05 93.9 12.4 92 13.6
2005-08-29 14:46:15 51°15.289 2°44.376 92.9 12.3 91 16.3
2005-08-29 14:47:15 51°15.279 2°44.699 97.4 12.4 95 17.9
2005-08-29 14:48:15 51°15.255 2°45.027 98.4 12.3 97 17.6
2005-08-29 14:49:15 51°15.232 2°45.35 97.5 12.2 96 16.4
2005-08-29 14:50:16 51°15.211 2°45.677 97.4 12.3 95 15.3
2005-08-29 14:51:14 51°15.188 2°45.987 98.1 12.2 97 13.9
2005-08-29 14:52:15 51°15.163 2°46.316 99 12.2 98 12.3
2005-08-29 14:53:15 51°15.142 2°46.632 97.2 12.1 95 10.9
2005-08-29 14:54:15 51°15.12 2°46.956 98.1 12.2 96 9.6
2005-08-29 14:55:14 51°15.096 2°47.275 99.1 12.2 98 9.1
2005-08-29 14:56:15 51°15.071 2°47.606 98.1 12.4 96 10.2
2005-08-29 14:57:14 51°15.048 2°47.926 97.9 12.3 96 12.7
2005-08-29 14:58:14 51°15.026 2°48.25 98.3 12.2 96 12.8
2005-08-29 14:59:15 51°15.002 2°48.575 98.1 12.2 96 12.4
2005-08-29 15:00:14 51°14.977 2°48.894 98 12.3 97 12.5
2005-08-29 15:01:15 51°14.952 2°49.222 98 12.3 97 12.6
2005-08-29 15:02:15 51°14.925 2°49.546 98.6 12.3 98 12.5
2005-08-29 15:03:15 51°14.898 2°49.866 98.3 12.3 97 12.3
2005-08-29 15:04:14 51°14.87 2°50.186 98.2 12.2 97 12.1
2005-08-29 15:05:14 51°14.844 2°50.51 97.4 12.3 97 11.8
2005-08-29 15:06:15 51°14.814 2°50.838 98.6 12.3 98 11.4
2005-08-29 15:07:15 51°14.786 2°51.157 98.2 12.2 98 11
2005-08-29 15:08:15 51°14.759 2°51.479 98 12.2 97 10.5
2005-08-29 15:09:16 51°14.729 2°51.804 97.4 12.3 98 10
2005-08-29 15:10:14 51°14.699 2°52.122 98.7 12.3 98 9.5
2005-08-29 15:11:15 51°14.67 2°52.449 98.1 12.4 98 9.3
2005-08-29 15:12:14 51°14.641 2°52.771 98.4 12.3 98 9.1
2005-08-29 15:13:16 51°14.612 2°53.101 97.5 12.3 97 8.6
2005-08-29 15:14:15 51°14.58 2°53.416 97.5 12.2 97 8.4
2005-08-29 15:15:15 51°14.549 2°53.745 98.8 12.4 99 9.7
2005-08-29 15:16:15 51°14.517 2°54.069 99.5 12.3 99 9.7
2005-08-29 15:17:15 51°14.485 2°54.389 100.6 12.2 102 10
2005-08-29 15:18:16 51°14.443 2°54.707 101.1 12.3 102 10
2005-08-29 15:19:15 51°14.388 2°54.985 110.3 10.9 111 9.9
2005-08-29 15:20:15 51°14.292 2°55.225 132.3 10.2 130 10.1
2005-08-29 15:21:17 51°14.163 2°55.385 154.9 8.7 153 -999
2005-08-29 15:22:17 51°14.043 2°55.474 157.6 8.2 156 -999
2005-08-29 15:23:17 51°13.918 2°55.562 157 8.1 155 -999
2005-08-29 15:24:17 51°13.799 2°55.661 149.6 8.1 148 -999
2005-08-29 15:25:17 51°13.708 2°55.794 131.6 6.6 130 -999
2005-08-29 15:26:17 51°13.651 2°55.922 125.3 5.6 123 -999
2005-08-29 15:27:17 51°13.613 2°56.033 113 4 112 -999
2005-08-29 15:28:17 51°13.599 2°56.086 121.1 0.2 109 -999
2005-08-29 15:29:17 51°13.597 2°56.09 114.7 0.5 128 -999
2005-08-29 15:30:17 51°13.596 2°56.095 112 0.2 97 -999
2005-08-29 15:31:17 51°13.596 2°56.092 107 0.2 113 -999
2005-08-29 15:32:17 51°13.596 2°56.096 109.8 0.1 22 -999
2005-08-29 15:33:17 51°13.598 2°56.095 123.2 0.2 295 -999